createdAt,value
2022-10-07T00:01:15.408Z,13.24
2022-10-07T00:03:43.904Z,13.12
2022-10-07T00:06:18.307Z,12.99
2022-10-07T00:08:51.419Z,12.91
2022-10-07T00:11:24.444Z,12.84
2022-10-07T00:13:56.310Z,12.66
2022-10-07T00:16:31.526Z,12.63
2022-10-07T00:19:03.460Z,12.56
2022-10-07T00:21:34.811Z,12.48
2022-10-07T00:24:03.836Z,12.46
2022-10-07T00:26:34.491Z,12.44
2022-10-07T00:29:04.230Z,12.28
2022-10-07T00:31:35.940Z,12.18
2022-10-07T00:34:05.502Z,11.91
2022-10-07T00:36:36.443Z,11.80
2022-10-07T00:39:09.153Z,11.80
2022-10-07T00:41:43.553Z,11.80
2022-10-07T00:44:33.643Z,11.59
2022-10-07T00:47:30.075Z,11.50
2022-10-07T00:50:11.666Z,11.47
2022-10-07T00:52:45.579Z,11.22
2022-10-07T00:55:20.863Z,11.10
2022-10-07T00:57:52.508Z,10.78
2022-10-07T01:00:24.796Z,10.77
2022-10-07T01:02:54.363Z,10.58
2022-10-07T01:05:22.862Z,10.43
2022-10-07T01:07:55.901Z,10.18
2022-10-07T01:10:33.061Z,10.04
2022-10-07T01:13:18.790Z,9.82
2022-10-07T01:16:00.636Z,9.70
2022-10-07T01:18:51.648Z,9.65
2022-10-07T01:21:40.965Z,9.52
2022-10-07T01:24:41.555Z,9.50
2022-10-07T01:27:18.845Z,9.46
2022-10-07T01:30:04.681Z,9.19
2022-10-07T01:32:56.235Z,9.18
2022-10-07T01:35:28.636Z,9.24
2022-10-07T01:38:02.053Z,9.19
2022-10-07T01:40:45.859Z,9.15
2022-10-07T01:43:17.479Z,9.11
2022-10-07T01:45:46.025Z,8.90
2022-10-07T01:48:14.561Z,8.74
2022-10-07T01:50:43.458Z,8.73
2022-10-07T01:53:32.783Z,8.71
2022-10-07T01:56:16.130Z,8.66
2022-10-07T01:59:02.784Z,8.48
2022-10-07T02:01:59.071Z,8.44
2022-10-07T02:05:00.800Z,8.38
2022-10-07T02:08:05.863Z,8.32
2022-10-07T02:10:49.832Z,8.27
2022-10-07T02:13:34.726Z,8.20
2022-10-07T02:16:12.017Z,8.15
2022-10-07T02:18:44.120Z,8.12
2022-10-07T02:21:13.644Z,7.94
2022-10-07T02:23:46.376Z,7.76
2022-10-07T02:26:20.202Z,7.80
2022-10-07T02:28:52.769Z,7.83
2022-10-07T02:31:26.081Z,7.76
2022-10-07T02:33:58.429Z,7.65
2022-10-07T02:36:32.334Z,7.69
2022-10-07T02:39:04.160Z,7.67
2022-10-07T02:41:45.674Z,7.66
2022-10-07T02:44:36.902Z,7.54
2022-10-07T02:47:15.463Z,7.43
2022-10-07T02:49:48.418Z,7.32
2022-10-07T02:52:20.386Z,7.34
2022-10-07T02:54:55.744Z,7.37
2022-10-07T02:57:26.600Z,7.28
2022-10-07T02:59:58.057Z,7.16
2022-10-07T03:02:34.121Z,7.01
2022-10-07T03:05:02.638Z,6.95
2022-10-07T03:07:31.505Z,6.96
2022-10-07T03:10:00.644Z,6.87
2022-10-07T03:12:30.279Z,6.86
2022-10-07T03:14:59.638Z,6.89
2022-10-07T03:17:28.130Z,6.93
2022-10-07T03:19:56.704Z,6.83
2022-10-07T03:22:25.289Z,6.76
2022-10-07T03:24:53.769Z,6.77
2022-10-07T03:27:22.367Z,6.70
2022-10-07T03:29:51.465Z,6.65
2022-10-07T03:32:20.030Z,6.65
2022-10-07T03:34:48.552Z,6.58
2022-10-07T03:37:17.017Z,6.57
2022-10-07T03:39:45.555Z,6.56
2022-10-07T03:42:14.730Z,6.48
2022-10-07T03:44:43.389Z,6.44
2022-10-07T03:47:11.878Z,6.41
2022-10-07T03:49:41.090Z,6.37
2022-10-07T03:52:09.551Z,6.30
2022-10-07T03:54:38.313Z,6.22
2022-10-07T03:57:26.730Z,6.20
2022-10-07T03:59:55.179Z,6.12
2022-10-07T04:02:24.720Z,6.07
2022-10-07T04:04:54.053Z,5.97
2022-10-07T04:07:25.323Z,5.87
2022-10-07T04:09:54.042Z,5.71
2022-10-07T04:12:22.476Z,5.64
2022-10-07T04:14:51.741Z,5.63
2022-10-07T04:17:20.390Z,5.64
2022-10-07T04:19:49.122Z,5.57
2022-10-07T04:22:17.856Z,5.53
2022-10-07T04:25:06.240Z,5.47
2022-10-07T04:27:51.035Z,5.51
2022-10-07T04:30:20.547Z,5.57
2022-10-07T04:32:50.867Z,5.73
2022-10-07T04:35:20.983Z,5.83
2022-10-07T04:37:53.590Z,5.91
2022-10-07T04:40:23.139Z,5.96
2022-10-07T04:43:10.567Z,6.10
2022-10-07T04:45:39.685Z,6.30
2022-10-07T04:48:10.869Z,6.21
2022-10-07T04:50:39.917Z,6.12
2022-10-07T04:53:09.741Z,6.11
2022-10-07T04:55:43.129Z,5.99
2022-10-07T04:58:11.552Z,5.88
2022-10-07T05:00:48.352Z,5.89
2022-10-07T05:03:18.504Z,5.70
2022-10-07T05:05:49.592Z,5.60
2022-10-07T05:08:21.107Z,5.59
2022-10-07T05:10:49.889Z,5.61
2022-10-07T05:13:18.265Z,5.58
2022-10-07T05:15:58.345Z,5.65
2022-10-07T05:18:28.255Z,5.72
2022-10-07T05:20:57.606Z,5.65
2022-10-07T05:23:28.767Z,5.54
2022-10-07T05:26:09.110Z,5.46
2022-10-07T05:28:38.251Z,5.46
2022-10-07T05:31:09.701Z,5.40
2022-10-07T05:33:38.679Z,5.30
2022-10-07T05:36:09.189Z,5.20
2022-10-07T05:38:38.215Z,5.08
2022-10-07T05:41:09.044Z,5.04
2022-10-07T05:43:41.387Z,4.97
2022-10-07T05:46:13.856Z,4.84
2022-10-07T05:48:42.543Z,4.80
2022-10-07T05:51:11.164Z,4.72
2022-10-07T05:53:42.434Z,4.73
2022-10-07T05:56:13.347Z,4.64
2022-10-07T05:58:41.803Z,4.57
2022-10-07T06:01:16.938Z,4.50
2022-10-07T06:03:50.310Z,4.40
2022-10-07T06:06:18.895Z,4.40
2022-10-07T06:08:48.242Z,4.39
2022-10-07T06:11:37.427Z,4.36
2022-10-07T06:14:06.985Z,4.24
2022-10-07T06:16:35.569Z,4.25
2022-10-07T06:19:04.168Z,4.31
2022-10-07T06:21:32.990Z,4.24
2022-10-07T06:24:01.808Z,4.19
2022-10-07T06:26:30.322Z,4.14
2022-10-07T06:28:58.792Z,3.97
2022-10-07T06:31:27.328Z,3.95
2022-10-07T06:33:56.141Z,3.90
2022-10-07T06:36:24.761Z,3.93
2022-10-07T06:38:54.639Z,3.98
2022-10-07T06:41:25.030Z,4.01
2022-10-07T06:43:58.279Z,4.16
2022-10-07T06:46:26.966Z,4.27
2022-10-07T06:48:55.526Z,4.23
2022-10-07T06:51:24.721Z,4.22
2022-10-07T06:53:55.267Z,4.10
2022-10-07T06:56:23.783Z,4.10
2022-10-07T06:58:52.263Z,3.99
2022-10-07T07:01:20.983Z,3.96
2022-10-07T07:03:49.574Z,3.94
2022-10-07T07:06:18.406Z,3.94
2022-10-07T07:08:47.236Z,3.88
2022-10-07T07:11:34.755Z,3.80
2022-10-07T07:14:04.965Z,3.77
2022-10-07T07:16:34.485Z,3.80
2022-10-07T07:19:09.993Z,3.74
2022-10-07T07:21:39.493Z,3.66
2022-10-07T07:24:09.041Z,3.59
2022-10-07T07:26:39.126Z,3.57
2022-10-07T07:29:08.358Z,3.53
2022-10-07T07:31:38.792Z,3.47
2022-10-07T07:34:12.683Z,3.49
2022-10-07T07:36:46.186Z,3.39
2022-10-07T07:39:15.190Z,3.40
2022-10-07T07:41:48.039Z,3.44
2022-10-07T07:44:19.156Z,3.41
2022-10-07T07:46:50.542Z,3.32
2022-10-07T07:49:19.702Z,3.20
2022-10-07T07:51:49.231Z,3.16
2022-10-07T07:54:17.861Z,3.29
2022-10-07T07:56:46.368Z,3.24
2022-10-07T07:59:15.064Z,3.24
2022-10-07T08:01:46.498Z,3.27
2022-10-07T08:04:16.451Z,3.20
2022-10-07T08:06:45.387Z,3.20
2022-10-07T08:09:14.480Z,3.13
2022-10-07T08:11:46.760Z,3.09
2022-10-07T08:14:17.539Z,3.15
2022-10-07T08:16:47.352Z,3.15
2022-10-07T08:19:16.669Z,3.08
2022-10-07T08:21:45.505Z,3.07
2022-10-07T08:24:15.263Z,3.08
2022-10-07T08:26:43.810Z,3.03
2022-10-07T08:29:14.536Z,3.10
2022-10-07T08:31:43.847Z,3.11
2022-10-07T08:34:12.970Z,3.04
2022-10-07T08:36:45.351Z,3.05
2022-10-07T08:39:13.674Z,3.03
2022-10-07T08:42:04.428Z,2.99
2022-10-07T08:44:47.522Z,3.03
2022-10-07T08:47:28.228Z,3.02
2022-10-07T08:50:15.170Z,3.08
2022-10-07T08:52:58.176Z,3.18
2022-10-07T08:55:31.961Z,3.26
2022-10-07T08:58:31.936Z,3.13
2022-10-07T09:01:09.132Z,3.10
2022-10-07T09:03:57.246Z,3.01
2022-10-07T09:06:33.505Z,3.00
2022-10-07T09:09:12.692Z,2.96
2022-10-07T09:11:44.292Z,3.00
2022-10-07T09:14:22.375Z,2.94
2022-10-07T09:16:52.549Z,2.94
2022-10-07T09:19:40.642Z,2.92
2022-10-07T09:22:15.365Z,2.85
2022-10-07T09:24:47.329Z,2.84
2022-10-07T09:27:18.538Z,2.81
2022-10-07T09:29:47.719Z,2.84
2022-10-07T09:32:20.029Z,2.80
2022-10-07T09:34:49.119Z,2.78
2022-10-07T09:37:27.352Z,2.79
2022-10-07T09:39:59.641Z,2.82
2022-10-07T09:42:47.080Z,2.73
2022-10-07T09:45:29.482Z,2.72
2022-10-07T09:48:00.138Z,2.73
2022-10-07T09:50:39.263Z,2.74
2022-10-07T09:53:22.959Z,2.69
2022-10-07T09:55:53.776Z,2.74
2022-10-07T09:58:27.385Z,2.70
2022-10-07T10:00:58.853Z,2.65
2022-10-07T10:03:45.262Z,2.61
2022-10-07T10:06:13.890Z,2.51
2022-10-07T10:08:45.349Z,2.51
2022-10-07T10:11:22.693Z,2.48
2022-10-07T10:13:53.034Z,2.40
2022-10-07T10:16:27.713Z,2.43
2022-10-07T10:19:24.485Z,2.29
2022-10-07T10:21:58.672Z,2.31
2022-10-07T10:24:50.171Z,2.45
2022-10-07T10:27:39.848Z,2.38
2022-10-07T10:30:23.748Z,2.31
2022-10-07T10:33:10.212Z,2.28
2022-10-07T10:35:52.732Z,2.35
2022-10-07T10:38:50.925Z,2.32
2022-10-07T10:41:27.940Z,2.38
2022-10-07T10:44:01.451Z,2.32
2022-10-07T10:46:47.285Z,2.12
2022-10-07T10:49:39.908Z,2.15
2022-10-07T10:52:22.805Z,2.13
2022-10-07T10:55:01.423Z,2.08
2022-10-07T10:58:02.955Z,2.18
2022-10-07T11:00:43.635Z,2.07
2022-10-07T11:03:41.699Z,2.13
2022-10-07T11:06:16.578Z,2.17
2022-10-07T11:08:48.604Z,2.12
2022-10-07T11:11:20.455Z,2.03
2022-10-07T11:14:14.584Z,2.10
2022-10-07T11:16:52.275Z,2.10
2022-10-07T11:19:29.232Z,2.05
2022-10-07T11:22:02.211Z,2.02
2022-10-07T11:24:45.714Z,2.00
2022-10-07T11:27:20.748Z,1.99
2022-10-07T11:30:19.621Z,1.90
2022-10-07T11:33:08.593Z,2.00
2022-10-07T11:35:45.246Z,2.03
2022-10-07T11:38:14.255Z,1.94
2022-10-07T11:40:45.597Z,1.96
2022-10-07T11:43:27.772Z,1.86
2022-10-07T11:46:11.278Z,1.86
2022-10-07T11:48:50.398Z,1.83
2022-10-07T11:51:33.501Z,1.85
2022-10-07T11:54:04.608Z,2.03
2022-10-07T11:56:46.181Z,1.89
2022-10-07T11:59:52.835Z,1.99
2022-10-07T12:02:30.511Z,1.99
2022-10-07T12:05:00.908Z,1.98
2022-10-07T12:07:46.215Z,2.22
2022-10-07T12:10:30.685Z,2.14
2022-10-07T12:13:02.607Z,2.10
2022-10-07T12:15:43.818Z,1.86
2022-10-07T12:18:12.298Z,1.86
2022-10-07T12:20:54.916Z,1.71
2022-10-07T12:23:23.520Z,1.73
2022-10-07T12:26:02.249Z,1.70
2022-10-07T12:28:44.337Z,1.76
2022-10-07T12:31:24.483Z,1.77
2022-10-07T12:34:11.087Z,2.01
2022-10-07T12:36:42.413Z,1.93
2022-10-07T12:39:13.642Z,1.78
2022-10-07T12:41:47.639Z,1.76
2022-10-07T12:44:22.465Z,1.77
2022-10-07T12:46:54.022Z,1.68
2022-10-07T12:49:38.622Z,1.64
2022-10-07T12:52:21.261Z,1.60
2022-10-07T12:54:55.731Z,1.47
2022-10-07T12:57:38.281Z,1.39
2022-10-07T13:00:14.274Z,1.38
2022-10-07T13:03:06.280Z,1.29
2022-10-07T13:05:34.702Z,1.29
2022-10-07T13:08:20.981Z,1.11
2022-10-07T13:11:26.666Z,1.21
2022-10-07T13:14:22.533Z,1.16
2022-10-07T13:16:51.073Z,1.18
2022-10-07T13:19:40.916Z,1.22
2022-10-07T13:22:20.901Z,1.35
2022-10-07T13:25:01.699Z,1.34
2022-10-07T13:27:36.196Z,1.28
2022-10-07T13:30:05.922Z,1.39
2022-10-07T13:32:36.679Z,1.29
2022-10-07T13:35:38.757Z,1.24
2022-10-07T13:38:08.050Z,1.22
2022-10-07T13:40:36.708Z,1.35
2022-10-07T13:43:08.917Z,1.44
2022-10-07T13:45:46.552Z,1.59
2022-10-07T13:48:20.413Z,1.45
2022-10-07T13:50:52.202Z,1.44
2022-10-07T13:53:31.946Z,1.46
2022-10-07T13:56:09.875Z,1.37
2022-10-07T13:58:38.756Z,1.32
2022-10-07T14:01:07.993Z,1.25
2022-10-07T14:03:36.620Z,1.23
2022-10-07T14:06:05.189Z,1.31
2022-10-07T14:08:34.444Z,1.35
2022-10-07T14:11:09.303Z,1.33
2022-10-07T14:13:39.146Z,1.41
2022-10-07T14:16:07.366Z,1.39
2022-10-07T14:18:36.231Z,1.49
2022-10-07T14:21:18.533Z,1.52
2022-10-07T14:23:48.551Z,1.53
2022-10-07T14:26:18.926Z,1.68
2022-10-07T14:28:50.315Z,1.77
2022-10-07T14:31:39.480Z,1.87
2022-10-07T14:34:36.865Z,1.87
2022-10-07T14:37:29.677Z,1.92
2022-10-07T14:40:00.168Z,2.13
2022-10-07T14:42:34.625Z,2.32
2022-10-07T14:45:06.236Z,2.53
2022-10-07T14:47:34.585Z,2.61
2022-10-07T14:50:03.134Z,2.65
2022-10-07T14:52:52.854Z,2.70
2022-10-07T14:55:28.730Z,2.86
2022-10-07T14:57:57.289Z,3.04
2022-10-07T15:00:28.866Z,3.13
2022-10-07T15:02:58.225Z,3.11
2022-10-07T15:05:28.079Z,3.12
2022-10-07T15:07:56.753Z,3.06
2022-10-07T15:10:29.346Z,3.12
2022-10-07T15:12:57.452Z,3.31
2022-10-07T15:15:25.803Z,3.41
2022-10-07T15:17:54.357Z,3.52
2022-10-07T15:20:23.049Z,3.59
2022-10-07T15:22:52.554Z,3.75
2022-10-07T15:25:22.253Z,3.87
2022-10-07T15:27:50.793Z,3.97
2022-10-07T15:30:20.053Z,4.04
2022-10-07T15:32:48.805Z,4.13
2022-10-07T15:35:17.503Z,4.20
2022-10-07T15:37:47.106Z,4.22
2022-10-07T15:40:16.074Z,4.41
2022-10-07T15:42:45.713Z,4.50
2022-10-07T15:45:14.762Z,4.58
2022-10-07T15:47:43.242Z,4.72
2022-10-07T15:50:11.979Z,4.83
2022-10-07T15:52:40.482Z,4.98
2022-10-07T15:55:10.088Z,5.12
2022-10-07T15:57:37.999Z,5.20
2022-10-07T16:00:06.842Z,5.29
2022-10-07T16:02:36.621Z,5.32
2022-10-07T16:05:05.509Z,5.42
2022-10-07T16:07:34.006Z,5.57
2022-10-07T16:10:02.468Z,5.70
2022-10-07T16:12:31.019Z,5.77
2022-10-07T16:14:59.535Z,5.96
2022-10-07T16:17:28.666Z,6.11
2022-10-07T16:19:57.189Z,6.24
2022-10-07T16:22:26.058Z,6.37
2022-10-07T16:24:56.890Z,6.56
2022-10-07T16:27:45.430Z,6.78
2022-10-07T16:30:32.424Z,7.02
2022-10-07T16:33:01.352Z,7.22
2022-10-07T16:35:31.809Z,7.30
2022-10-07T16:38:00.302Z,7.50
2022-10-07T16:40:28.732Z,7.70
2022-10-07T16:42:58.607Z,7.86
2022-10-07T16:45:27.430Z,8.04
2022-10-07T16:47:57.851Z,8.23
2022-10-07T16:50:26.374Z,8.42
2022-10-07T16:52:54.831Z,8.62
2022-10-07T16:55:24.193Z,8.84
2022-10-07T16:57:54.970Z,8.98
2022-10-07T17:00:23.720Z,9.23
2022-10-07T17:02:52.549Z,9.61
2022-10-07T17:05:21.122Z,9.98
2022-10-07T17:07:50.089Z,10.40
2022-10-07T17:10:18.526Z,10.87
2022-10-07T17:12:47.299Z,11.11
2022-10-07T17:15:16.426Z,11.65
2022-10-07T17:17:45.133Z,12.01
2022-10-07T17:20:14.261Z,12.29
2022-10-07T17:22:43.563Z,12.42
2022-10-07T17:25:12.102Z,12.37
2022-10-07T17:27:40.617Z,12.90
2022-10-07T17:30:09.763Z,13.54
2022-10-07T17:32:38.598Z,13.71
2022-10-07T17:35:09.445Z,14.18
2022-10-07T17:37:37.816Z,13.49
2022-10-07T17:40:07.048Z,14.06
2022-10-07T17:42:35.574Z,14.08
2022-10-07T17:45:05.956Z,14.35
2022-10-07T17:47:34.972Z,14.85
2022-10-07T17:50:03.518Z,14.97
2022-10-07T17:52:33.572Z,14.87
2022-10-07T17:55:02.024Z,15.08
2022-10-07T17:57:31.051Z,15.06
2022-10-07T17:59:59.581Z,14.77
2022-10-07T18:02:28.706Z,15.20
2022-10-07T18:04:57.259Z,15.13
2022-10-07T18:07:25.835Z,15.10
2022-10-07T18:09:57.084Z,14.90
2022-10-07T18:12:43.973Z,15.17
2022-10-07T18:15:21.547Z,14.87
2022-10-07T18:17:52.607Z,15.55
2022-10-07T18:20:24.259Z,15.91
2022-10-07T18:22:57.001Z,15.76
2022-10-07T18:25:26.537Z,15.75
2022-10-07T18:27:55.714Z,15.83
2022-10-07T18:30:24.348Z,16.28
2022-10-07T18:32:52.939Z,16.42
2022-10-07T18:35:21.379Z,16.00
2022-10-07T18:37:52.319Z,15.75
2022-10-07T18:40:20.966Z,15.74
2022-10-07T18:42:52.163Z,16.49
2022-10-07T18:45:23.440Z,16.19
2022-10-07T18:47:51.910Z,15.68
2022-10-07T18:50:20.421Z,16.38
2022-10-07T18:52:49.064Z,16.59
2022-10-07T18:55:17.549Z,16.87
2022-10-07T18:57:46.162Z,16.87
2022-10-07T19:00:15.533Z,16.88
2022-10-07T19:02:47.080Z,17.23
2022-10-07T19:05:15.682Z,17.35
2022-10-07T19:07:44.611Z,17.09
2022-10-07T19:10:13.283Z,17.39
2022-10-07T19:13:00.351Z,17.17
2022-10-07T19:15:28.905Z,17.34
2022-10-07T19:17:57.729Z,17.33
2022-10-07T19:20:26.372Z,17.12
2022-10-07T19:22:55.277Z,17.65
2022-10-07T19:25:42.272Z,16.95
2022-10-07T19:28:10.860Z,17.30
2022-10-07T19:30:39.417Z,16.85
2022-10-07T19:33:07.920Z,17.16
2022-10-07T19:35:36.426Z,17.59
2022-10-07T19:38:08.924Z,17.52
2022-10-07T19:40:42.226Z,16.86
2022-10-07T19:43:12.028Z,17.47
2022-10-07T19:45:43.271Z,17.63
2022-10-07T19:48:14.732Z,17.55
2022-10-07T19:50:43.296Z,17.13
2022-10-07T19:53:11.747Z,17.50
2022-10-07T19:55:46.758Z,17.62
2022-10-07T19:58:15.269Z,17.70
2022-10-07T20:00:43.759Z,17.73
2022-10-07T20:03:12.328Z,17.43
2022-10-07T20:05:45.045Z,17.41
2022-10-07T20:08:15.795Z,17.56
2022-10-07T20:10:44.263Z,17.43
2022-10-07T20:13:12.779Z,17.52
2022-10-07T20:15:42.112Z,17.59
2022-10-07T20:18:11.202Z,17.74
2022-10-07T20:20:39.812Z,17.67
2022-10-07T20:23:08.509Z,17.66
2022-10-07T20:25:39.640Z,17.80
2022-10-07T20:28:08.241Z,17.50
2022-10-07T20:30:36.852Z,17.89
2022-10-07T20:33:07.575Z,18.02
2022-10-07T20:35:36.656Z,18.01
2022-10-07T20:38:05.190Z,17.83
2022-10-07T20:40:51.804Z,17.90
2022-10-07T20:43:20.388Z,17.98
2022-10-07T20:46:00.222Z,18.01
2022-10-07T20:48:30.695Z,17.82
2022-10-07T20:51:08.110Z,18.07
2022-10-07T20:53:36.644Z,18.24
2022-10-07T20:56:05.721Z,17.55
2022-10-07T20:58:34.433Z,17.60
2022-10-07T21:01:10.914Z,17.95
2022-10-07T21:03:39.999Z,17.99
2022-10-07T21:06:08.811Z,18.11
2022-10-07T21:08:37.795Z,18.14
2022-10-07T21:11:07.270Z,18.07
2022-10-07T21:13:35.752Z,18.31
2022-10-07T21:16:06.647Z,18.28
2022-10-07T21:18:35.170Z,18.05
2022-10-07T21:21:03.940Z,18.34
2022-10-07T21:23:32.941Z,18.36
2022-10-07T21:26:02.580Z,18.43
2022-10-07T21:28:34.261Z,18.38
2022-10-07T21:31:04.392Z,18.53
2022-10-07T21:33:34.305Z,18.62
2022-10-07T21:36:05.416Z,18.45
2022-10-07T21:38:34.514Z,18.37
2022-10-07T21:41:12.950Z,18.27
2022-10-07T21:43:45.438Z,18.41
2022-10-07T21:46:13.686Z,18.06
2022-10-07T21:48:42.156Z,18.29
2022-10-07T21:51:10.817Z,18.46
2022-10-07T21:53:39.424Z,18.40
2022-10-07T21:56:11.553Z,18.43
2022-10-07T21:58:40.482Z,18.50
2022-10-07T22:01:14.355Z,18.51
2022-10-07T22:03:44.171Z,18.45
2022-10-07T22:06:15.363Z,18.46
2022-10-07T22:08:46.445Z,18.41
2022-10-07T22:11:20.172Z,18.43
2022-10-07T22:13:56.577Z,18.43
2022-10-07T22:16:26.481Z,18.30
2022-10-07T22:18:56.688Z,18.41
2022-10-07T22:21:28.492Z,18.49
2022-10-07T22:24:01.882Z,18.24
2022-10-07T22:26:35.616Z,18.32
2022-10-07T22:29:04.074Z,18.39
2022-10-07T22:31:32.727Z,18.44
2022-10-07T22:34:02.990Z,18.48
2022-10-07T22:36:31.856Z,18.54
2022-10-07T22:39:00.686Z,18.06
2022-10-07T22:41:30.499Z,18.32
2022-10-07T22:44:00.327Z,18.34
2022-10-07T22:46:29.799Z,18.21
2022-10-07T22:48:59.053Z,18.14
2022-10-07T22:51:30.917Z,18.23
2022-10-07T22:53:59.428Z,18.19
2022-10-07T22:56:31.521Z,18.20
2022-10-07T22:59:01.539Z,18.15
2022-10-07T23:01:32.667Z,18.20
2022-10-07T23:04:04.444Z,18.18
2022-10-07T23:06:35.094Z,18.13
2022-10-07T23:09:05.709Z,18.11
2022-10-07T23:11:34.051Z,18.10
2022-10-07T23:14:02.648Z,18.05
2022-10-07T23:16:32.480Z,17.99
2022-10-07T23:19:01.568Z,17.98
2022-10-07T23:21:34.129Z,17.94
2022-10-07T23:24:07.237Z,17.98
2022-10-07T23:26:37.345Z,17.97
2022-10-07T23:29:05.888Z,17.90
2022-10-07T23:31:34.525Z,17.84
2022-10-07T23:34:04.334Z,17.78
2022-10-07T23:36:34.242Z,17.78
2022-10-07T23:39:03.057Z,17.77
2022-10-07T23:41:33.100Z,17.70
2022-10-07T23:44:03.619Z,17.63
2022-10-07T23:46:36.989Z,17.61
2022-10-07T23:49:05.580Z,17.42
2022-10-07T23:51:34.931Z,17.28
2022-10-07T23:54:04.916Z,17.30
2022-10-07T23:56:34.136Z,17.29
2022-10-07T23:59:02.780Z,17.27
